Atlantic, North Carolina
Current Conditions -  °F | °C
As of 3:56 AM on Saturday 20 Dec 2014 (Local Time) from KNBT Reporting Station
Clear Clear  
Wind Chill: 41°   Ceiling: Unl
Heat Index: 46°   Visibility: NA
Dew Point: 36°   Wind: 9mph
Humidity: 68%   Direction: 40°NE
Pressure: 30.22"   Gusts: NA
Location:  34.89°N, 76.34°W
Report Text: KNBT 200856Z AUTO 04008KT CLR 08/02 A3022 RMK AO2 SLP238 6//// T00780022 50003 PNO $
Loading
Personal Weather Stations






























Interactive Weather Map New forecast layout! Learn more

10-Day Weather Forecast

Advertisements
Track Severe Weather on mobile